createdAt,value
2023-02-08T00:00:01.105Z,41
2023-02-08T00:10:01.038Z,26
2023-02-08T00:20:01.052Z,36
2023-02-08T00:30:00.890Z,18
2023-02-08T00:40:00.823Z,40
2023-02-08T00:50:00.556Z,41
2023-02-08T01:00:00.580Z,47
2023-02-08T01:10:00.592Z,49
2023-02-08T01:20:00.723Z,26
2023-02-08T01:30:00.557Z,113
2023-02-08T01:40:00.542Z,265
2023-02-08T01:50:00.542Z,66
2023-02-08T02:00:00.579Z,214
2023-02-08T02:10:00.536Z,115
2023-02-08T02:20:00.557Z,149
2023-02-08T02:30:00.802Z,38
2023-02-08T02:40:00.851Z,44
2023-02-08T02:50:00.890Z,58
2023-02-08T03:00:00.849Z,41
2023-02-08T03:10:00.910Z,18
2023-02-08T03:20:00.675Z,19
2023-02-08T03:30:00.574Z,25
2023-02-08T03:40:00.607Z,78
2023-02-08T03:50:00.560Z,46
2023-02-08T04:00:00.557Z,36
2023-02-08T04:10:00.573Z,78
2023-02-08T04:20:00.766Z,245
2023-02-08T04:30:00.560Z,65
2023-02-08T04:40:00.551Z,51
2023-02-08T04:50:00.927Z,109
2023-02-08T05:00:01.048Z,23
2023-02-08T05:10:00.800Z,36
2023-02-08T05:20:00.548Z,140
2023-02-08T05:30:00.568Z,30
2023-02-08T05:40:00.567Z,53
2023-02-08T05:50:00.617Z,79
2023-02-08T06:00:00.653Z,257
2023-02-08T06:10:00.749Z,307
2023-02-08T06:20:00.626Z,251
2023-02-08T06:30:00.586Z,153
2023-02-08T06:40:00.537Z,171
2023-02-08T06:50:00.578Z,197
2023-02-08T07:00:00.801Z,266
2023-02-08T07:10:00.772Z,456
2023-02-08T07:20:00.844Z,294
2023-02-08T07:30:01.024Z,220
2023-02-08T07:40:00.849Z,271
2023-02-08T07:50:00.851Z,160
2023-02-08T08:00:00.907Z,188
2023-02-08T08:10:01.094Z,168
2023-02-08T08:20:00.657Z,138
2023-02-08T08:30:00.853Z,192
2023-02-08T08:40:01.144Z,143
2023-02-08T08:50:00.842Z,132
2023-02-08T09:00:01.136Z,134
2023-02-08T09:10:00.840Z,143
2023-02-08T09:20:01.350Z,115
2023-02-08T09:30:00.727Z,142
2023-02-08T09:40:00.611Z,92
2023-02-08T09:50:00.609Z,112
2023-02-08T10:00:00.611Z,140
2023-02-08T10:10:00.581Z,115
2023-02-08T10:20:00.664Z,156
2023-02-08T10:30:00.585Z,139
2023-02-08T10:40:00.642Z,105
2023-02-08T10:50:01.015Z,137
2023-02-08T11:00:01.175Z,76
2023-02-08T11:10:00.959Z,92
2023-02-08T11:20:01.030Z,44
2023-02-08T11:30:01.018Z,155
2023-02-08T11:40:00.931Z,63
2023-02-08T11:50:00.743Z,38
2023-02-08T12:00:00.587Z,169
2023-02-08T12:10:00.561Z,178
2023-02-08T12:20:00.865Z,276
2023-02-08T12:30:00.581Z,120
2023-02-08T12:40:00.567Z,159
2023-02-08T12:50:00.570Z,90
2023-02-08T13:00:00.558Z,107
2023-02-08T13:10:00.555Z,194
2023-02-08T13:20:01.128Z,232
2023-02-08T13:30:00.558Z,135
2023-02-08T13:40:00.598Z,142
2023-02-08T13:50:00.790Z,131
2023-02-08T14:00:00.950Z,109
2023-02-08T14:10:00.921Z,154
2023-02-08T14:20:01.022Z,165
2023-02-08T14:30:00.837Z,393
2023-02-08T14:40:01.031Z,498
2023-02-08T14:50:00.671Z,442
2023-02-08T15:00:01.013Z,381
2023-02-08T15:10:00.629Z,300
2023-02-08T15:20:00.548Z,331
2023-02-08T15:30:00.630Z,331
2023-02-08T15:40:00.606Z,355
2023-02-08T15:50:00.603Z,301
2023-02-08T16:00:00.576Z,242
2023-02-08T16:10:00.593Z,324
2023-02-08T16:20:00.813Z,398
2023-02-08T16:30:00.861Z,383
2023-02-08T16:40:01.307Z,277
2023-02-08T16:50:00.903Z,308
2023-02-08T17:00:00.672Z,302
2023-02-08T17:10:00.663Z,473
2023-02-08T17:20:00.701Z,434
2023-02-08T17:30:00.556Z,446
2023-02-08T17:40:00.572Z,421
2023-02-08T17:50:00.618Z,441
2023-02-08T18:00:00.590Z,400
2023-02-08T18:10:00.589Z,348
2023-02-08T18:20:00.714Z,336
2023-02-08T18:30:00.951Z,308
2023-02-08T18:40:00.907Z,232
2023-02-08T18:50:01.074Z,178
2023-02-08T19:00:00.947Z,429
2023-02-08T19:10:00.788Z,369
2023-02-08T19:20:00.634Z,330
2023-02-08T19:30:00.757Z,303
2023-02-08T19:40:00.586Z,246
2023-02-08T19:50:00.543Z,305
2023-02-08T20:00:01.658Z,324
2023-02-08T20:10:01.052Z,209
2023-02-08T20:20:01.027Z,165
2023-02-08T20:30:00.867Z,174
2023-02-08T20:40:01.128Z,172
2023-02-08T20:50:03.126Z,181
2023-02-08T21:00:01.167Z,202
2023-02-08T21:10:00.841Z,295
2023-02-08T21:20:00.717Z,239
2023-02-08T21:30:00.558Z,263
2023-02-08T21:40:00.542Z,137
2023-02-08T21:50:00.543Z,131
2023-02-08T22:00:00.542Z,406
2023-02-08T22:10:00.548Z,168
2023-02-08T22:20:00.543Z,104
2023-02-08T22:30:00.541Z,107
2023-02-08T22:40:00.582Z,268
2023-02-08T22:50:00.907Z,346
2023-02-08T23:00:01.053Z,219
2023-02-08T23:10:00.883Z,83
2023-02-08T23:20:00.883Z,68
2023-02-08T23:30:00.798Z,177
2023-02-08T23:40:00.741Z,257
2023-02-08T23:50:00.825Z,147
